createdAt,value
2023-08-06T00:00:01.156Z,45.80
2023-08-06T00:02:28.203Z,45.80
2023-08-06T00:04:55.176Z,45.80
2023-08-06T00:07:22.149Z,45.90
2023-08-06T00:09:50.217Z,45.80
2023-08-06T00:12:17.149Z,45.80
2023-08-06T00:14:44.799Z,45.80
2023-08-06T00:17:12.225Z,45.90
2023-08-06T00:19:39.225Z,45.80
2023-08-06T00:22:06.457Z,46.00
2023-08-06T00:24:33.446Z,45.90
2023-08-06T00:27:00.400Z,45.90
2023-08-06T00:29:27.515Z,45.90
2023-08-06T00:31:54.482Z,45.90
2023-08-06T00:34:21.577Z,45.90
2023-08-06T00:36:49.006Z,45.90
2023-08-06T00:39:15.931Z,45.90
2023-08-06T00:41:42.867Z,45.90
2023-08-06T00:44:09.811Z,45.90
2023-08-06T00:46:36.820Z,45.90
2023-08-06T00:49:04.479Z,45.90
2023-08-06T00:51:31.905Z,45.90
2023-08-06T00:53:59.091Z,45.90
2023-08-06T00:56:26.676Z,45.80
2023-08-06T00:58:53.882Z,45.90
2023-08-06T01:01:20.840Z,45.90
2023-08-06T01:03:47.945Z,45.90
2023-08-06T01:06:22.686Z,45.90
2023-08-06T01:09:00.246Z,45.90
2023-08-06T01:11:31.012Z,45.90
2023-08-06T01:14:31.586Z,45.90
2023-08-06T01:17:00.505Z,45.90
2023-08-06T01:19:27.500Z,45.90
2023-08-06T01:21:54.689Z,45.90
2023-08-06T01:24:22.221Z,45.90
2023-08-06T01:27:32.235Z,45.90
2023-08-06T01:30:11.764Z,46.00
2023-08-06T01:32:45.282Z,45.90
2023-08-06T01:35:15.270Z,45.90
2023-08-06T01:37:43.624Z,45.90
2023-08-06T01:40:14.475Z,45.90
2023-08-06T01:42:41.737Z,45.90
2023-08-06T01:45:10.291Z,45.90
2023-08-06T01:47:37.877Z,45.90
2023-08-06T01:50:05.582Z,45.90
2023-08-06T01:52:32.573Z,45.90
2023-08-06T01:54:59.584Z,45.90
2023-08-06T01:57:26.582Z,45.90
2023-08-06T01:59:53.503Z,45.90
2023-08-06T02:02:20.876Z,45.90
2023-08-06T02:04:47.829Z,45.90
2023-08-06T02:07:18.936Z,45.90
2023-08-06T02:09:47.257Z,45.90
2023-08-06T02:12:16.237Z,46.00
2023-08-06T02:14:44.907Z,45.90
2023-08-06T02:17:11.840Z,45.90
2023-08-06T02:19:38.808Z,45.90
2023-08-06T02:22:06.229Z,45.90
2023-08-06T02:24:33.118Z,46.00
2023-08-06T02:27:01.536Z,45.90
2023-08-06T02:29:28.435Z,45.90
2023-08-06T02:31:55.802Z,45.90
2023-08-06T02:34:23.137Z,45.90
2023-08-06T02:36:50.124Z,45.90
2023-08-06T02:39:17.079Z,45.90
2023-08-06T02:41:43.985Z,46.00
2023-08-06T02:44:10.916Z,46.00
2023-08-06T02:46:37.797Z,46.00
2023-08-06T02:49:04.805Z,45.90
2023-08-06T02:51:31.752Z,45.90
2023-08-06T02:53:58.802Z,45.90
2023-08-06T02:56:26.762Z,45.90
2023-08-06T02:58:53.715Z,46.00
2023-08-06T03:01:20.947Z,46.00
2023-08-06T03:03:47.885Z,46.00
2023-08-06T03:06:14.734Z,46.00
2023-08-06T03:08:41.744Z,46.00
2023-08-06T03:11:08.638Z,46.00
2023-08-06T03:13:35.556Z,46.00
2023-08-06T03:16:02.698Z,46.00
2023-08-06T03:18:29.795Z,46.00
2023-08-06T03:20:56.928Z,46.00
2023-08-06T03:23:24.060Z,46.00
2023-08-06T03:25:51.028Z,46.00
2023-08-06T03:28:18.124Z,46.00
2023-08-06T03:30:47.023Z,46.00
2023-08-06T03:33:13.922Z,46.00
2023-08-06T03:35:41.119Z,46.00
2023-08-06T03:38:08.063Z,46.00
2023-08-06T03:40:37.283Z,46.00
2023-08-06T03:43:04.302Z,46.00
2023-08-06T03:45:34.334Z,46.00
2023-08-06T03:48:01.293Z,46.00
2023-08-06T03:50:28.143Z,46.00
2023-08-06T03:52:55.032Z,46.00
2023-08-06T03:55:22.877Z,46.00
2023-08-06T03:57:49.866Z,46.00
2023-08-06T04:00:16.932Z,46.00
2023-08-06T04:02:44.564Z,46.10
2023-08-06T04:05:11.610Z,46.10
2023-08-06T04:07:38.558Z,46.00
2023-08-06T04:10:06.482Z,46.10
2023-08-06T04:12:37.451Z,46.00
2023-08-06T04:15:05.192Z,46.10
2023-08-06T04:17:32.326Z,46.10
2023-08-06T04:20:02.880Z,46.00
2023-08-06T04:22:30.649Z,46.10
2023-08-06T04:24:57.535Z,46.00
2023-08-06T04:27:24.531Z,46.00
2023-08-06T04:29:51.432Z,46.10
2023-08-06T04:32:20.595Z,46.10
2023-08-06T04:34:47.909Z,46.10
2023-08-06T04:37:14.917Z,46.00
2023-08-06T04:39:41.762Z,46.10
2023-08-06T04:42:08.691Z,46.10
2023-08-06T04:44:35.553Z,46.10
2023-08-06T04:47:02.613Z,46.10
2023-08-06T04:49:29.578Z,46.10
2023-08-06T04:51:56.504Z,46.10
2023-08-06T04:54:24.014Z,46.10
2023-08-06T04:56:51.012Z,46.20
2023-08-06T04:59:18.105Z,46.10
2023-08-06T05:01:45.155Z,46.10
2023-08-06T05:04:12.115Z,46.20
2023-08-06T05:06:42.373Z,46.10
2023-08-06T05:09:09.373Z,46.10
2023-08-06T05:11:37.319Z,46.10
2023-08-06T05:14:04.260Z,46.10
2023-08-06T05:16:31.371Z,46.20
2023-08-06T05:18:58.335Z,46.10
2023-08-06T05:21:25.355Z,46.10
2023-08-06T05:23:52.313Z,46.20
2023-08-06T05:26:20.551Z,46.20
2023-08-06T05:28:47.724Z,46.10
2023-08-06T05:31:14.917Z,46.20
2023-08-06T05:33:41.942Z,46.20
2023-08-06T05:36:08.901Z,46.10
2023-08-06T05:38:35.812Z,46.10
2023-08-06T05:41:02.800Z,46.10
2023-08-06T05:43:29.853Z,46.10
2023-08-06T05:45:58.311Z,46.10
2023-08-06T05:48:26.084Z,46.10
2023-08-06T05:50:53.695Z,46.10
2023-08-06T05:53:20.676Z,46.10
2023-08-06T05:55:48.719Z,46.20
2023-08-06T05:58:15.738Z,46.10
2023-08-06T06:00:42.714Z,46.10
2023-08-06T06:03:10.057Z,46.20
2023-08-06T06:05:40.165Z,46.20
2023-08-06T06:08:07.200Z,46.20
2023-08-06T06:10:34.127Z,46.20
2023-08-06T06:13:01.092Z,46.20
2023-08-06T06:15:28.103Z,46.10
2023-08-06T06:17:55.092Z,46.20
2023-08-06T06:20:22.048Z,46.20
2023-08-06T06:22:48.990Z,46.10
2023-08-06T06:25:16.003Z,46.10
2023-08-06T06:27:42.930Z,46.20
2023-08-06T06:30:10.342Z,46.20
2023-08-06T06:32:37.344Z,46.20
2023-08-06T06:35:05.701Z,46.10
2023-08-06T06:37:32.704Z,46.20
2023-08-06T06:40:00.629Z,46.20
2023-08-06T06:42:27.593Z,46.20
2023-08-06T06:44:55.492Z,46.10
2023-08-06T06:47:23.412Z,46.20
2023-08-06T06:49:50.490Z,46.20
2023-08-06T06:52:17.491Z,46.20
2023-08-06T06:54:44.419Z,46.20
2023-08-06T06:57:11.389Z,46.20
2023-08-06T06:59:42.191Z,46.20
2023-08-06T07:02:09.189Z,46.20
2023-08-06T07:04:36.087Z,46.20
2023-08-06T07:07:03.238Z,46.20
2023-08-06T07:09:30.290Z,46.20
2023-08-06T07:11:57.236Z,46.20
2023-08-06T07:14:27.200Z,46.20
2023-08-06T07:16:54.309Z,46.20
2023-08-06T07:19:21.743Z,46.20
2023-08-06T07:21:48.724Z,46.20
2023-08-06T07:24:15.661Z,46.30
2023-08-06T07:26:43.813Z,46.40
2023-08-06T07:29:10.794Z,46.50
2023-08-06T07:31:37.875Z,46.60
2023-08-06T07:34:04.795Z,46.70
2023-08-06T07:36:31.991Z,46.70
2023-08-06T07:38:59.066Z,46.80
2023-08-06T07:41:27.349Z,46.90
2023-08-06T07:43:54.356Z,46.90
2023-08-06T07:46:21.330Z,46.90
2023-08-06T07:48:48.340Z,46.90
2023-08-06T07:51:15.276Z,46.80
2023-08-06T07:53:42.330Z,46.80
2023-08-06T07:56:09.395Z,46.80
2023-08-06T07:58:36.569Z,46.70
2023-08-06T08:01:05.488Z,46.70
2023-08-06T08:03:32.919Z,46.60
2023-08-06T08:06:00.081Z,46.60
2023-08-06T08:08:31.611Z,46.50
2023-08-06T08:11:00.166Z,46.70
2023-08-06T08:13:27.511Z,46.50
2023-08-06T08:16:02.957Z,46.50
2023-08-06T08:18:30.998Z,46.40
2023-08-06T08:20:58.150Z,46.40
2023-08-06T08:23:25.286Z,46.40
2023-08-06T08:25:52.482Z,46.40
2023-08-06T08:28:19.616Z,46.40
2023-08-06T08:30:46.731Z,46.30
2023-08-06T08:33:14.342Z,46.30
2023-08-06T08:35:41.694Z,46.30
2023-08-06T08:38:08.685Z,46.20
2023-08-06T08:40:47.685Z,46.20
2023-08-06T08:43:16.386Z,46.10
2023-08-06T08:45:46.783Z,46.20
2023-08-06T08:48:15.424Z,46.20
2023-08-06T08:50:46.775Z,46.20
2023-08-06T08:53:18.020Z,46.10
2023-08-06T08:55:49.243Z,46.10
2023-08-06T08:58:17.287Z,46.10
2023-08-06T09:00:47.017Z,46.00
2023-08-06T09:03:14.462Z,46.00
2023-08-06T09:05:52.974Z,45.90
2023-08-06T09:08:30.756Z,45.80
2023-08-06T09:10:59.119Z,45.90
2023-08-06T09:13:26.925Z,45.80
2023-08-06T09:16:41.470Z,45.80
2023-08-06T09:19:18.913Z,45.70
2023-08-06T09:21:50.334Z,46.30
2023-08-06T09:24:17.464Z,45.70
2023-08-06T09:26:46.100Z,45.70
2023-08-06T09:29:13.465Z,45.70
2023-08-06T09:31:49.144Z,45.70
2023-08-06T09:34:25.180Z,45.70
2023-08-06T09:36:54.853Z,45.70
2023-08-06T09:39:32.318Z,45.70
2023-08-06T09:42:04.108Z,45.80
2023-08-06T09:44:33.039Z,45.70
2023-08-06T09:47:05.953Z,45.80
2023-08-06T09:49:33.540Z,45.70
2023-08-06T09:52:01.623Z,45.80
2023-08-06T09:54:31.204Z,45.80
2023-08-06T09:56:58.602Z,45.80
2023-08-06T09:59:26.713Z,45.80
2023-08-06T10:01:59.067Z,45.80
2023-08-06T10:04:30.908Z,45.90
2023-08-06T10:07:03.277Z,45.80
2023-08-06T10:09:30.278Z,45.80
2023-08-06T10:12:00.681Z,45.90
2023-08-06T10:14:34.082Z,45.80
2023-08-06T10:17:01.812Z,45.80
2023-08-06T10:19:31.871Z,45.90
2023-08-06T10:22:16.360Z,45.90
2023-08-06T10:24:58.267Z,45.80
2023-08-06T10:27:48.008Z,45.80
2023-08-06T10:30:34.670Z,45.70
2023-08-06T10:33:05.860Z,45.70
2023-08-06T10:35:48.232Z,45.70
2023-08-06T10:38:22.795Z,45.70
2023-08-06T10:40:56.029Z,45.70
2023-08-06T10:43:40.822Z,45.60
2023-08-06T10:46:13.227Z,45.60
2023-08-06T10:48:42.502Z,45.60
2023-08-06T10:51:16.073Z,45.70
2023-08-06T10:53:48.714Z,45.60
2023-08-06T10:56:25.175Z,45.70
2023-08-06T10:58:56.709Z,45.60
2023-08-06T11:01:25.105Z,45.60
2023-08-06T11:03:54.562Z,45.60
2023-08-06T11:06:24.305Z,45.60
2023-08-06T11:08:54.545Z,45.50
2023-08-06T11:11:24.899Z,45.50
2023-08-06T11:13:53.152Z,45.40
2023-08-06T11:16:25.503Z,45.40
2023-08-06T11:18:54.301Z,45.30
2023-08-06T11:21:25.871Z,45.20
2023-08-06T11:23:54.244Z,45.20
2023-08-06T11:26:22.532Z,45.20
2023-08-06T11:28:50.427Z,45.20
2023-08-06T11:31:24.822Z,45.20
2023-08-06T11:33:53.608Z,45.20
2023-08-06T11:36:34.601Z,45.20
2023-08-06T11:39:03.743Z,45.20
2023-08-06T11:41:31.782Z,45.20
2023-08-06T11:44:00.410Z,45.20
2023-08-06T11:46:27.577Z,45.20
2023-08-06T11:48:57.016Z,45.20
2023-08-06T11:51:27.051Z,45.30
2023-08-06T11:54:00.364Z,45.30
2023-08-06T11:56:28.784Z,45.30
2023-08-06T11:58:56.775Z,45.30
2023-08-06T12:01:24.013Z,45.30
2023-08-06T12:03:51.086Z,45.30
2023-08-06T12:06:18.141Z,45.30
2023-08-06T12:08:45.387Z,45.40
2023-08-06T12:11:15.271Z,45.40
2023-08-06T12:13:42.826Z,45.40
2023-08-06T12:16:09.880Z,45.40
2023-08-06T12:18:36.889Z,45.40
2023-08-06T12:21:04.070Z,45.50
2023-08-06T12:23:33.890Z,45.50
2023-08-06T12:26:00.866Z,45.50
2023-08-06T12:28:28.388Z,45.50
2023-08-06T12:30:56.722Z,45.40
2023-08-06T12:33:23.775Z,45.50
2023-08-06T12:35:50.788Z,45.50
2023-08-06T12:38:17.714Z,45.50
2023-08-06T12:40:44.755Z,45.50
2023-08-06T12:43:11.804Z,45.60
2023-08-06T12:45:40.852Z,45.60
2023-08-06T12:48:07.911Z,45.50
2023-08-06T12:50:35.843Z,45.50
2023-08-06T12:53:03.454Z,45.50
2023-08-06T12:55:33.087Z,45.60
2023-08-06T12:58:00.594Z,45.70
2023-08-06T13:00:28.265Z,45.60
2023-08-06T13:02:55.678Z,45.60
2023-08-06T13:05:25.861Z,45.60
2023-08-06T13:07:52.976Z,45.70
2023-08-06T13:10:21.402Z,45.70
2023-08-06T13:12:48.325Z,45.70
2023-08-06T13:15:15.829Z,45.80
2023-08-06T13:17:45.351Z,45.80
2023-08-06T13:20:12.423Z,45.80
2023-08-06T13:22:39.560Z,45.90
2023-08-06T13:25:07.130Z,45.90
2023-08-06T13:27:34.033Z,45.90
2023-08-06T13:30:01.021Z,45.90
2023-08-06T13:32:28.013Z,45.80
2023-08-06T13:34:57.430Z,45.80
2023-08-06T13:37:24.413Z,45.80
2023-08-06T13:39:51.352Z,45.80
2023-08-06T13:42:18.302Z,45.80
2023-08-06T13:44:45.229Z,45.80
2023-08-06T13:47:12.424Z,45.70
2023-08-06T13:49:39.539Z,45.70
2023-08-06T13:52:21.054Z,45.70
2023-08-06T13:54:49.851Z,45.70
2023-08-06T13:57:18.821Z,45.70
2023-08-06T13:59:46.146Z,45.70
2023-08-06T14:02:13.329Z,45.70
2023-08-06T14:04:41.190Z,45.60
2023-08-06T14:07:08.152Z,45.60
2023-08-06T14:09:35.690Z,45.60
2023-08-06T14:12:02.958Z,46.20
2023-08-06T14:14:30.029Z,45.70
2023-08-06T14:16:57.818Z,45.70
2023-08-06T14:19:25.390Z,45.60
2023-08-06T14:21:52.449Z,45.60
2023-08-06T14:24:20.103Z,45.60
2023-08-06T14:26:47.240Z,45.60
2023-08-06T14:29:14.851Z,45.70
2023-08-06T14:31:42.341Z,45.70
2023-08-06T14:34:09.337Z,45.70
2023-08-06T14:36:36.381Z,45.70
2023-08-06T14:39:03.572Z,45.70
2023-08-06T14:41:33.389Z,45.70
2023-08-06T14:44:00.415Z,45.70
2023-08-06T14:46:27.558Z,45.70
2023-08-06T14:48:54.516Z,45.70
2023-08-06T14:51:22.600Z,45.80
2023-08-06T14:53:49.718Z,45.80
2023-08-06T14:56:16.858Z,45.80
2023-08-06T14:58:43.988Z,45.80
2023-08-06T15:01:11.134Z,45.80
2023-08-06T15:03:38.125Z,45.70
2023-08-06T15:06:05.152Z,45.60
2023-08-06T15:08:32.210Z,45.60
2023-08-06T15:10:59.448Z,45.50
2023-08-06T15:13:26.562Z,45.40
2023-08-06T15:15:53.612Z,45.40
2023-08-06T15:18:20.648Z,45.30
2023-08-06T15:20:47.833Z,45.90
2023-08-06T15:23:15.592Z,45.30
2023-08-06T15:25:42.666Z,45.10
2023-08-06T15:28:09.750Z,45.20
2023-08-06T15:30:36.866Z,45.00
2023-08-06T15:33:04.089Z,45.00
2023-08-06T15:35:31.170Z,45.00
2023-08-06T15:37:58.180Z,44.90
2023-08-06T15:40:25.276Z,44.90
2023-08-06T15:42:52.378Z,44.80
2023-08-06T15:45:19.532Z,44.80
2023-08-06T15:47:46.637Z,44.80
2023-08-06T15:50:13.786Z,44.80
2023-08-06T15:52:40.917Z,44.80
2023-08-06T15:55:08.331Z,44.80
2023-08-06T15:57:38.648Z,44.70
2023-08-06T16:00:07.130Z,44.70
2023-08-06T16:02:34.261Z,44.70
2023-08-06T16:05:01.492Z,44.60
2023-08-06T16:07:28.931Z,44.70
2023-08-06T16:09:56.100Z,44.60
2023-08-06T16:12:23.672Z,44.60
2023-08-06T16:14:51.148Z,44.60
2023-08-06T16:17:19.733Z,44.70
2023-08-06T16:19:48.194Z,44.70
2023-08-06T16:22:15.250Z,44.60
2023-08-06T16:24:42.207Z,44.70
2023-08-06T16:27:09.185Z,44.70
2023-08-06T16:29:37.582Z,44.70
2023-08-06T16:32:05.622Z,44.70
2023-08-06T16:34:36.248Z,44.70
2023-08-06T16:37:07.119Z,44.80
2023-08-06T16:39:34.152Z,44.70
2023-08-06T16:42:01.357Z,44.70
2023-08-06T16:44:34.650Z,44.80
2023-08-06T16:47:02.250Z,44.80
2023-08-06T16:49:29.259Z,44.80
2023-08-06T16:51:56.384Z,44.80
2023-08-06T16:54:23.449Z,44.90
2023-08-06T16:56:50.418Z,44.90
2023-08-06T16:59:17.544Z,44.90
2023-08-06T17:01:44.575Z,44.90
2023-08-06T17:04:12.716Z,44.90
2023-08-06T17:06:39.683Z,44.90
2023-08-06T17:09:07.017Z,45.00
2023-08-06T17:11:34.057Z,44.90
2023-08-06T17:14:01.701Z,44.90
2023-08-06T17:16:28.725Z,44.90
2023-08-06T17:18:55.732Z,44.90
2023-08-06T17:21:22.951Z,44.90
2023-08-06T17:23:49.943Z,45.00
2023-08-06T17:26:16.918Z,45.00
2023-08-06T17:28:43.958Z,45.00
2023-08-06T17:31:12.082Z,45.00
2023-08-06T17:33:39.189Z,45.00
2023-08-06T17:36:06.239Z,45.30
2023-08-06T17:38:33.245Z,45.10
2023-08-06T17:41:01.231Z,45.10
2023-08-06T17:43:28.197Z,45.10
2023-08-06T17:45:55.195Z,45.10
2023-08-06T17:48:22.331Z,45.10
2023-08-06T17:50:49.391Z,45.10
2023-08-06T17:53:19.394Z,45.10
2023-08-06T17:55:46.435Z,45.10
2023-08-06T17:58:13.406Z,45.20
2023-08-06T18:00:40.376Z,45.20
2023-08-06T18:03:07.642Z,45.20
2023-08-06T18:05:36.215Z,45.20
2023-08-06T18:08:03.440Z,45.30
2023-08-06T18:10:30.429Z,45.20
2023-08-06T18:12:57.393Z,45.30
2023-08-06T18:15:24.530Z,45.30
2023-08-06T18:17:51.613Z,45.30
2023-08-06T18:20:18.785Z,45.30
2023-08-06T18:22:45.866Z,45.40
2023-08-06T18:25:13.207Z,45.40
2023-08-06T18:27:44.479Z,45.40
2023-08-06T18:30:12.433Z,45.40
2023-08-06T18:32:39.478Z,45.40
2023-08-06T18:35:07.273Z,45.40
2023-08-06T18:37:35.772Z,45.50
2023-08-06T18:40:03.321Z,45.40
2023-08-06T18:42:30.674Z,45.50
2023-08-06T18:44:57.815Z,45.40
2023-08-06T18:47:27.191Z,45.50
2023-08-06T18:49:54.362Z,45.60
2023-08-06T18:52:21.672Z,45.50
2023-08-06T18:54:49.253Z,45.60
2023-08-06T18:57:16.319Z,45.60
2023-08-06T18:59:43.499Z,45.60
2023-08-06T19:02:10.603Z,45.60
2023-08-06T19:04:38.034Z,45.60
2023-08-06T19:07:05.315Z,45.60
2023-08-06T19:09:32.420Z,45.60
2023-08-06T19:11:59.437Z,45.60
2023-08-06T19:14:27.859Z,45.70
2023-08-06T19:16:57.494Z,45.70
2023-08-06T19:19:25.088Z,45.70
2023-08-06T19:21:53.826Z,45.70
2023-08-06T19:24:21.026Z,45.70
2023-08-06T19:26:48.106Z,45.70
2023-08-06T19:29:15.113Z,45.70
2023-08-06T19:31:49.163Z,45.80
2023-08-06T19:34:27.413Z,45.70
2023-08-06T19:36:54.402Z,45.70
2023-08-06T19:39:21.478Z,45.70
2023-08-06T19:41:48.670Z,45.70
2023-08-06T19:44:15.638Z,45.70
2023-08-06T19:46:42.658Z,45.80
2023-08-06T19:49:09.640Z,45.80
2023-08-06T19:51:41.210Z,45.80
2023-08-06T19:54:08.487Z,45.80
2023-08-06T19:56:35.599Z,45.80
2023-08-06T19:59:04.135Z,45.80
2023-08-06T20:01:31.801Z,45.80
2023-08-06T20:03:58.874Z,45.80
2023-08-06T20:06:31.153Z,45.90
2023-08-06T20:08:58.784Z,45.90
2023-08-06T20:11:28.317Z,45.80
2023-08-06T20:13:55.888Z,45.80
2023-08-06T20:16:22.894Z,45.80
2023-08-06T20:18:50.032Z,45.90
2023-08-06T20:21:17.560Z,45.90
2023-08-06T20:23:44.722Z,45.90
2023-08-06T20:26:11.808Z,45.90
2023-08-06T20:28:38.760Z,45.90
2023-08-06T20:31:05.897Z,45.90
2023-08-06T20:33:36.941Z,45.90
2023-08-06T20:36:04.475Z,46.00
2023-08-06T20:38:31.876Z,45.90
2023-08-06T20:40:59.008Z,45.90
2023-08-06T20:43:26.546Z,46.50
2023-08-06T20:46:05.240Z,45.90
2023-08-06T20:48:32.845Z,46.00
2023-08-06T20:50:59.992Z,45.90
2023-08-06T20:53:27.158Z,45.90
2023-08-06T20:56:05.837Z,46.00
2023-08-06T20:58:33.634Z,46.10
2023-08-06T21:01:02.213Z,45.90
2023-08-06T21:03:31.614Z,45.90
2023-08-06T21:06:04.559Z,45.90
2023-08-06T21:08:33.409Z,46.00
2023-08-06T21:11:01.875Z,46.00
2023-08-06T21:13:29.971Z,46.00
2023-08-06T21:16:03.411Z,46.00
2023-08-06T21:18:35.986Z,46.00
2023-08-06T21:21:05.262Z,46.00
2023-08-06T21:23:32.890Z,46.00
2023-08-06T21:26:06.262Z,46.00
2023-08-06T21:28:35.994Z,46.00
2023-08-06T21:31:10.475Z,46.00
2023-08-06T21:33:39.169Z,46.00
2023-08-06T21:36:08.941Z,46.00
2023-08-06T21:38:39.258Z,46.00
2023-08-06T21:41:12.224Z,46.00
2023-08-06T21:43:44.692Z,46.60
2023-08-06T21:46:15.381Z,46.00
2023-08-06T21:48:45.490Z,46.00
2023-08-06T21:51:16.487Z,46.00
2023-08-06T21:53:43.937Z,46.00
2023-08-06T21:56:12.746Z,46.00
2023-08-06T21:58:49.440Z,46.00
2023-08-06T22:01:20.578Z,46.00
2023-08-06T22:03:47.645Z,46.00
2023-08-06T22:06:18.113Z,46.00
2023-08-06T22:08:45.235Z,46.00
2023-08-06T22:11:12.297Z,46.00
2023-08-06T22:13:40.182Z,46.00
2023-08-06T22:16:08.584Z,46.00
2023-08-06T22:18:36.447Z,46.00
2023-08-06T22:21:03.862Z,46.00
2023-08-06T22:23:30.867Z,46.00
2023-08-06T22:25:57.971Z,46.00
2023-08-06T22:28:26.161Z,46.00
2023-08-06T22:30:53.600Z,46.10
2023-08-06T22:33:23.082Z,46.00
2023-08-06T22:35:51.603Z,46.00
2023-08-06T22:38:19.204Z,46.10
2023-08-06T22:40:46.141Z,46.10
2023-08-06T22:43:13.127Z,46.10
2023-08-06T22:45:40.140Z,46.00
2023-08-06T22:48:07.195Z,46.00
2023-08-06T22:50:34.153Z,46.00
2023-08-06T22:53:01.194Z,46.00
2023-08-06T22:55:57.603Z,46.10
2023-08-06T22:58:15.199Z,46.00
2023-08-06T23:00:42.461Z,46.30
2023-08-06T23:03:12.995Z,46.00
2023-08-06T23:05:40.884Z,46.10
2023-08-06T23:08:08.908Z,46.10
2023-08-06T23:10:36.069Z,46.10
2023-08-06T23:13:04.929Z,46.10
2023-08-06T23:15:31.928Z,46.10
2023-08-06T23:17:59.208Z,46.10
2023-08-06T23:20:26.162Z,46.10
2023-08-06T23:22:53.148Z,46.10
2023-08-06T23:25:20.372Z,46.10
2023-08-06T23:27:47.285Z,46.10
2023-08-06T23:30:14.478Z,46.10
2023-08-06T23:32:42.157Z,46.10
2023-08-06T23:35:09.940Z,46.20
2023-08-06T23:37:37.713Z,46.10
2023-08-06T23:40:06.117Z,46.10
2023-08-06T23:42:33.242Z,46.10
2023-08-06T23:45:00.323Z,46.10
2023-08-06T23:47:29.433Z,45.90
2023-08-06T23:49:56.565Z,46.20
2023-08-06T23:52:23.580Z,46.10
2023-08-06T23:54:50.573Z,46.10
2023-08-06T23:57:17.555Z,46.10
2023-08-06T23:59:47.790Z,46.10
